createdAt,value
2019-05-10T00:00:14.416Z,90.80
2019-05-10T00:03:01.243Z,91.30
2019-05-10T00:05:48.250Z,91.60
2019-05-10T00:08:34.725Z,91.80
2019-05-10T00:11:05.587Z,92.10
2019-05-10T00:16:21.443Z,93.10
2019-05-10T00:18:50.038Z,93.50
2019-05-10T00:21:18.687Z,92.50
2019-05-10T00:23:47.238Z,92.30
2019-05-10T00:26:15.940Z,92.10
2019-05-10T00:28:44.614Z,92.20
2019-05-10T00:31:13.222Z,91.90
2019-05-10T00:33:41.853Z,91.40
2019-05-10T00:36:10.467Z,91.00
2019-05-10T00:38:38.948Z,90.00
2019-05-10T00:41:07.517Z,89.90
2019-05-10T00:43:36.060Z,89.20
2019-05-10T00:46:04.673Z,89.30
2019-05-10T00:48:33.272Z,89.20
2019-05-10T00:51:01.827Z,89.20
2019-05-10T00:53:30.446Z,88.80
2019-05-10T00:55:58.975Z,88.80
2019-05-10T00:58:27.514Z,88.20
2019-05-10T01:00:56.390Z,87.80
2019-05-10T01:03:24.984Z,87.10
2019-05-10T01:05:53.518Z,87.10
2019-05-10T01:08:22.055Z,86.10
2019-05-10T01:10:50.938Z,85.70
2019-05-10T01:13:19.495Z,85.50
2019-05-10T01:15:48.032Z,86.60
2019-05-10T01:18:16.658Z,86.50
2019-05-10T01:20:45.199Z,85.80
2019-05-10T01:23:13.763Z,85.40
2019-05-10T01:25:42.319Z,85.10
2019-05-10T01:28:10.848Z,85.50
2019-05-10T01:30:39.594Z,85.20
2019-05-10T01:33:08.192Z,85.40
2019-05-10T01:35:36.726Z,85.00
2019-05-10T01:38:05.436Z,85.10
2019-05-10T01:40:33.973Z,85.50
2019-05-10T01:43:02.503Z,85.60
2019-05-10T01:45:31.083Z,85.50
2019-05-10T01:47:59.623Z,85.80
2019-05-10T01:50:28.079Z,86.20
2019-05-10T01:52:56.689Z,86.20
2019-05-10T01:55:25.227Z,85.50
2019-05-10T01:57:53.771Z,85.90
2019-05-10T02:00:22.688Z,86.40
2019-05-10T02:02:51.574Z,87.20
2019-05-10T02:05:20.262Z,86.90
2019-05-10T02:07:49.151Z,86.80
2019-05-10T02:10:17.819Z,86.90
2019-05-10T02:12:46.431Z,87.30
2019-05-10T02:15:15.340Z,87.40
2019-05-10T02:17:44.711Z,87.60
2019-05-10T02:20:13.588Z,88.00
2019-05-10T02:22:42.147Z,87.70
2019-05-10T02:25:10.932Z,87.90
2019-05-10T02:27:39.865Z,88.10
2019-05-10T02:30:09.208Z,88.50
2019-05-10T02:32:37.670Z,88.80
2019-05-10T02:35:09.615Z,89.00
2019-05-10T02:37:38.181Z,88.80
2019-05-10T02:40:07.244Z,88.70
2019-05-10T02:42:55.144Z,88.90
2019-05-10T02:45:24.008Z,89.20
2019-05-10T02:47:52.540Z,89.10
2019-05-10T02:50:21.490Z,89.40
2019-05-10T02:52:50.299Z,89.40
2019-05-10T02:55:18.822Z,89.30
2019-05-10T02:57:47.895Z,90.00
2019-05-10T03:00:16.920Z,90.20
2019-05-10T03:02:46.337Z,90.40
2019-05-10T03:05:15.036Z,90.60
2019-05-10T03:07:46.688Z,90.90
2019-05-10T03:10:15.395Z,90.90
2019-05-10T03:12:43.929Z,91.90
2019-05-10T03:15:33.355Z,92.30
2019-05-10T03:18:22.764Z,92.80
2019-05-10T03:20:54.403Z,93.70
2019-05-10T03:23:23.372Z,94.00
2019-05-10T03:25:52.229Z,94.20
2019-05-10T03:28:20.794Z,94.50
2019-05-10T03:30:49.414Z,94.60
2019-05-10T03:33:18.082Z,94.20
2019-05-10T03:35:46.769Z,94.20
2019-05-10T03:38:15.460Z,94.10
2019-05-10T03:40:44.246Z,93.80
2019-05-10T03:43:12.849Z,94.00
2019-05-10T03:46:00.740Z,93.40
2019-05-10T03:48:29.276Z,93.20
2019-05-10T03:50:57.819Z,93.00
2019-05-10T03:53:26.382Z,92.90
2019-05-10T03:55:54.937Z,92.30
2019-05-10T03:58:23.464Z,92.40
2019-05-10T04:00:52.044Z,92.30
2019-05-10T04:03:20.590Z,92.60
2019-05-10T04:05:49.199Z,92.60
2019-05-10T04:08:17.769Z,92.50
2019-05-10T04:10:46.750Z,93.00
2019-05-10T04:13:15.463Z,92.90
2019-05-10T04:15:44.656Z,92.60
2019-05-10T04:18:13.247Z,92.80
2019-05-10T04:20:41.810Z,92.00
2019-05-10T04:23:10.357Z,92.20
2019-05-10T04:25:39.199Z,91.90
2019-05-10T04:28:08.194Z,91.90
2019-05-10T04:30:36.722Z,91.40
2019-05-10T04:33:05.420Z,91.30
2019-05-10T04:35:33.923Z,91.40
2019-05-10T04:38:02.464Z,91.20
2019-05-10T04:40:31.310Z,90.40
2019-05-10T04:42:59.848Z,90.10
2019-05-10T04:45:28.409Z,90.00
2019-05-10T04:47:56.943Z,88.90
2019-05-10T04:50:25.616Z,89.30
2019-05-10T04:52:54.536Z,88.80
2019-05-10T04:55:23.064Z,86.50
2019-05-10T04:57:51.663Z,86.20
2019-05-10T05:00:20.312Z,85.40
2019-05-10T05:02:48.903Z,84.90
2019-05-10T05:05:17.451Z,82.20
2019-05-10T05:07:45.987Z,81.70
2019-05-10T05:10:15.087Z,81.60
2019-05-10T05:12:43.631Z,81.70
2019-05-10T05:15:12.328Z,79.90
2019-05-10T05:17:40.890Z,78.60
2019-05-10T05:20:09.621Z,79.00
2019-05-10T05:22:38.177Z,78.60
2019-05-10T05:25:07.666Z,77.40
2019-05-10T05:27:36.240Z,77.60
2019-05-10T05:30:09.123Z,76.50
2019-05-10T05:32:38.659Z,76.20
2019-05-10T05:35:08.003Z,76.50
2019-05-10T05:37:36.604Z,76.10
2019-05-10T05:40:09.037Z,74.60
2019-05-10T05:42:37.859Z,74.40
2019-05-10T05:45:10.010Z,74.20
2019-05-10T05:47:42.320Z,73.00
2019-05-10T05:50:09.180Z,71.40
2019-05-10T05:52:37.752Z,70.40
2019-05-10T05:55:07.562Z,68.10
2019-05-10T05:57:36.108Z,69.20
2019-05-10T06:00:06.760Z,67.30
2019-05-10T06:02:44.246Z,68.00
2019-05-10T06:05:06.163Z,68.00
2019-05-10T06:07:38.005Z,68.40
2019-05-10T06:10:10.260Z,67.60
2019-05-10T06:12:57.402Z,68.50
2019-05-10T06:15:29.202Z,68.10
2019-05-10T06:17:57.551Z,62.10
2019-05-10T06:20:26.334Z,64.80
2019-05-10T06:23:05.563Z,61.90
2019-05-10T06:25:39.234Z,62.20
2019-05-10T06:27:55.307Z,57.90
2019-05-10T06:30:43.317Z,57.90
2019-05-10T06:33:13.253Z,58.50
2019-05-10T06:35:41.619Z,59.60
2019-05-10T06:38:10.154Z,60.00
2019-05-10T06:40:46.559Z,62.70
2019-05-10T06:43:13.301Z,56.90
2019-05-10T06:45:40.250Z,57.80
2019-05-10T06:48:09.207Z,57.80
2019-05-10T06:50:37.780Z,58.50
2019-05-10T06:53:10.817Z,58.20
2019-05-10T06:55:36.691Z,60.80
2019-05-10T06:58:05.159Z,54.10
2019-05-10T07:00:38.032Z,53.50
2019-05-10T07:03:04.058Z,54.50
2019-05-10T07:05:32.642Z,54.70
2019-05-10T07:08:14.065Z,55.00
2019-05-10T07:10:33.660Z,55.90
2019-05-10T07:13:03.679Z,57.00
2019-05-10T07:15:35.666Z,58.10
2019-05-10T07:18:03.209Z,59.90
2019-05-10T07:20:31.812Z,60.80
2019-05-10T07:25:30.639Z,60.20
2019-05-10T07:27:59.192Z,61.20
2019-05-10T07:30:41.352Z,59.50
2019-05-10T07:33:08.459Z,60.90
2019-05-10T07:35:38.624Z,59.90
2019-05-10T07:38:07.306Z,57.60
2019-05-10T07:40:35.951Z,59.50
2019-05-10T07:43:04.488Z,59.80
2019-05-10T07:45:33.031Z,58.40
2019-05-10T07:48:02.393Z,60.50
2019-05-10T07:50:31.814Z,58.50
2019-05-10T07:53:00.315Z,59.70
2019-05-10T07:55:30.115Z,59.90
2019-05-10T07:58:04.599Z,58.90
2019-05-10T08:00:29.551Z,59.70
2019-05-10T08:03:11.839Z,61.70
2019-05-10T08:05:29.598Z,59.70
2019-05-10T08:07:58.978Z,61.40
2019-05-10T08:10:29.072Z,60.70
2019-05-10T08:12:59.583Z,61.20
2019-05-10T08:15:30.566Z,62.00
2019-05-10T08:17:58.657Z,62.80
2019-05-10T08:20:41.292Z,61.50
2019-05-10T08:22:57.442Z,62.20
2019-05-10T08:25:29.089Z,62.50
2019-05-10T08:27:56.342Z,64.30
2019-05-10T08:30:58.898Z,63.00
2019-05-10T08:33:25.423Z,63.90
2019-05-10T08:36:00.836Z,64.70
2019-05-10T08:38:24.179Z,64.00
2019-05-10T08:40:52.966Z,65.20
2019-05-10T08:43:24.333Z,64.60
2019-05-10T08:45:52.394Z,63.80
2019-05-10T08:48:23.374Z,65.20
2019-05-10T08:50:57.150Z,63.50
2019-05-10T08:53:23.153Z,65.40
2019-05-10T08:55:52.535Z,66.20
2019-05-10T08:58:31.676Z,65.00
2019-05-10T09:01:10.221Z,64.50
2019-05-10T09:03:22.864Z,65.60
2019-05-10T09:05:53.028Z,67.10
2019-05-10T09:08:27.253Z,65.70
2019-05-10T09:10:53.004Z,66.60
2019-05-10T09:13:22.936Z,65.80
2019-05-10T09:15:56.522Z,65.30
2019-05-10T09:18:22.888Z,64.10
2019-05-10T09:20:54.110Z,65.10
2019-05-10T09:23:22.854Z,63.50
2019-05-10T09:25:52.029Z,63.60
2019-05-10T09:28:21.891Z,64.80
2019-05-10T09:30:57.483Z,64.00
2019-05-10T09:33:22.473Z,65.90
2019-05-10T09:35:54.616Z,66.90
2019-05-10T09:38:22.143Z,64.60
2019-05-10T09:40:55.966Z,66.00
2019-05-10T09:43:24.152Z,68.00
2019-05-10T09:45:53.092Z,70.80
2019-05-10T09:48:22.810Z,71.80
2019-05-10T09:50:55.195Z,71.70
2019-05-10T09:53:26.200Z,68.80
2019-05-10T09:56:00.142Z,70.20
2019-05-10T09:58:22.667Z,67.50
2019-05-10T10:00:51.270Z,67.90
2019-05-10T10:03:20.291Z,68.70
2019-05-10T10:05:48.943Z,69.00
2019-05-10T10:08:17.791Z,69.40
2019-05-10T10:10:47.576Z,68.40
2019-05-10T10:13:35.938Z,67.50
2019-05-10T10:15:51.877Z,67.20
2019-05-10T10:18:21.146Z,67.10
2019-05-10T10:20:48.036Z,67.70
2019-05-10T10:23:17.287Z,68.20
2019-05-10T10:25:48.394Z,68.40
2019-05-10T10:28:18.633Z,70.30
2019-05-10T10:30:50.436Z,67.80
2019-05-10T10:33:24.492Z,68.50
2019-05-10T10:35:48.194Z,66.60
2019-05-10T10:38:17.881Z,67.30
2019-05-10T10:40:46.871Z,67.00
2019-05-10T10:43:17.846Z,65.80
2019-05-10T10:45:45.643Z,63.90
2019-05-10T10:48:14.257Z,62.70
2019-05-10T10:50:44.324Z,59.30
2019-05-10T10:53:13.674Z,61.10
2019-05-10T10:55:48.436Z,59.50
2019-05-10T10:58:12.490Z,59.90
2019-05-10T11:00:41.379Z,60.40
2019-05-10T11:03:09.899Z,61.60
2019-05-10T11:05:38.467Z,58.20
2019-05-10T11:08:07.006Z,58.10
2019-05-10T11:10:35.505Z,55.90
2019-05-10T11:13:10.952Z,55.40
2019-05-10T11:15:36.295Z,54.60
2019-05-10T11:18:04.744Z,59.60
2019-05-10T11:20:33.368Z,56.60
2019-05-10T11:23:02.098Z,56.20
2019-05-10T11:25:30.764Z,55.20
2019-05-10T11:28:01.618Z,57.00
2019-05-10T11:30:29.671Z,57.20
2019-05-10T11:33:00.398Z,53.60
2019-05-10T11:35:32.023Z,56.70
2019-05-10T11:38:01.218Z,55.30
2019-05-10T11:40:32.713Z,53.00
2019-05-10T11:43:01.463Z,54.60
2019-05-10T11:45:35.492Z,54.20
2019-05-10T11:48:03.593Z,52.60
2019-05-10T11:50:35.326Z,55.40
2019-05-10T11:53:06.873Z,55.50
2019-05-10T11:55:35.779Z,57.20
2019-05-10T11:58:08.715Z,53.90
2019-05-10T12:00:34.562Z,56.70
2019-05-10T12:03:08.900Z,55.80
2019-05-10T12:05:33.425Z,55.70
2019-05-10T12:08:02.242Z,56.70
2019-05-10T12:10:32.007Z,60.10
2019-05-10T12:13:14.550Z,55.90
2019-05-10T12:15:31.969Z,58.40
2019-05-10T12:18:04.727Z,57.90
2019-05-10T12:20:41.479Z,52.80
2019-05-10T12:23:03.182Z,52.70
2019-05-10T12:25:47.065Z,53.60
2019-05-10T12:28:02.336Z,49.60
2019-05-10T12:30:34.911Z,49.60
2019-05-10T12:33:07.951Z,50.50
2019-05-10T12:35:39.290Z,48.20
2019-05-10T12:38:02.067Z,49.00
2019-05-10T12:40:31.426Z,51.50
2019-05-10T12:43:00.706Z,51.30
2019-05-10T12:45:31.432Z,51.60
2019-05-10T12:48:01.332Z,52.10
2019-05-10T12:50:30.415Z,53.10
2019-05-10T12:53:07.078Z,54.00
2019-05-10T12:55:29.083Z,55.20
2019-05-10T12:57:57.911Z,56.20
2019-05-10T13:00:26.632Z,58.00
2019-05-10T13:03:11.146Z,59.90
2019-05-10T13:05:32.092Z,60.60
2019-05-10T13:07:55.663Z,59.60
2019-05-10T13:10:24.242Z,66.30
2019-05-10T13:12:52.915Z,67.70
2019-05-10T13:15:24.834Z,71.50
2019-05-10T13:17:53.093Z,72.20
2019-05-10T13:20:22.371Z,68.40
2019-05-10T13:22:50.948Z,64.40
2019-05-10T13:25:19.586Z,62.50
2019-05-10T13:27:48.243Z,61.90
2019-05-10T13:30:17.758Z,59.70
2019-05-10T13:32:52.944Z,62.30
2019-05-10T13:35:18.226Z,62.10
2019-05-10T13:37:46.769Z,64.00
2019-05-10T13:40:15.370Z,64.50
2019-05-10T13:42:46.025Z,65.10
2019-05-10T13:45:14.566Z,64.70
2019-05-10T13:47:43.148Z,63.00
2019-05-10T13:50:12.015Z,64.30
2019-05-10T13:52:41.315Z,65.10
2019-05-10T13:55:10.380Z,64.50
2019-05-10T13:57:38.968Z,68.20
2019-05-10T14:00:33.831Z,69.70
2019-05-10T14:02:58.577Z,70.30
2019-05-10T14:05:27.162Z,71.30
2019-05-10T14:07:55.715Z,70.00
2019-05-10T14:10:25.343Z,70.30
2019-05-10T14:12:56.091Z,71.30
2019-05-10T14:15:24.897Z,70.20
2019-05-10T14:17:53.443Z,65.30
2019-05-10T14:20:27.537Z,64.90
2019-05-10T14:22:55.618Z,58.00
2019-05-10T14:25:22.822Z,60.00
2019-05-10T14:27:51.847Z,60.60
2019-05-10T14:30:20.855Z,61.20
2019-05-10T14:32:49.444Z,61.40
2019-05-10T14:35:37.321Z,60.80
2019-05-10T14:38:08.465Z,61.00
2019-05-10T14:40:36.221Z,62.20
2019-05-10T14:43:04.761Z,63.60
2019-05-10T14:45:33.323Z,65.10
2019-05-10T14:48:01.892Z,67.50
2019-05-10T14:50:30.437Z,69.30
2019-05-10T14:52:59.014Z,70.60
2019-05-10T14:55:34.770Z,70.80
2019-05-10T14:57:58.295Z,71.50
2019-05-10T15:00:27.007Z,73.60
2019-05-10T15:02:56.576Z,72.00
2019-05-10T15:05:25.923Z,74.10
2019-05-10T15:07:54.475Z,76.60
2019-05-10T15:10:23.111Z,78.70
2019-05-10T15:12:51.877Z,81.20
2019-05-10T15:15:20.740Z,81.20
2019-05-10T15:17:55.256Z,78.80
2019-05-10T15:20:19.639Z,79.50
2019-05-10T15:22:49.746Z,75.80
2019-05-10T15:25:18.451Z,72.40
2019-05-10T15:27:47.019Z,69.60
2019-05-10T15:30:15.808Z,66.40
2019-05-10T15:32:44.400Z,67.70
2019-05-10T15:35:13.094Z,63.40
2019-05-10T15:37:46.179Z,62.90
2019-05-10T15:40:12.778Z,61.70
2019-05-10T15:42:42.545Z,64.80
2019-05-10T15:45:14.119Z,61.40
2019-05-10T15:47:51.120Z,64.50
2019-05-10T15:50:14.623Z,60.60
2019-05-10T15:52:46.602Z,54.90
2019-05-10T15:55:16.588Z,57.40
2019-05-10T15:57:44.115Z,53.80
2019-05-10T16:00:12.858Z,56.80
2019-05-10T16:02:41.440Z,54.10
2019-05-10T16:05:24.080Z,57.00
2019-05-10T16:07:40.505Z,54.80
2019-05-10T16:10:09.100Z,53.70
2019-05-10T16:12:42.455Z,53.00
2019-05-10T16:15:13.872Z,53.20
2019-05-10T16:17:38.696Z,53.20
2019-05-10T16:20:07.536Z,52.50
2019-05-10T16:22:36.123Z,53.30
2019-05-10T16:25:25.701Z,53.10
2019-05-10T16:27:54.303Z,51.20
2019-05-10T16:30:22.917Z,51.10
2019-05-10T16:32:52.164Z,49.20
2019-05-10T16:35:22.104Z,46.60
2019-05-10T16:37:50.809Z,48.40
2019-05-10T16:40:19.418Z,47.70
2019-05-10T16:42:48.353Z,49.20
2019-05-10T16:45:17.224Z,49.80
2019-05-10T16:47:45.794Z,51.60
2019-05-10T16:50:14.461Z,50.60
2019-05-10T16:52:43.471Z,51.60
2019-05-10T16:55:12.155Z,51.40
2019-05-10T16:57:40.662Z,50.50
2019-05-10T17:00:10.691Z,51.10
2019-05-10T17:02:42.250Z,51.60
2019-05-10T17:05:15.306Z,52.90
2019-05-10T17:07:41.066Z,53.50
2019-05-10T17:10:09.761Z,55.00
2019-05-10T17:12:38.323Z,55.00
2019-05-10T17:15:08.502Z,56.60
2019-05-10T17:17:39.140Z,55.50
2019-05-10T17:20:14.238Z,56.80
2019-05-10T17:22:39.292Z,55.50
2019-05-10T17:25:08.865Z,56.80
2019-05-10T17:27:37.442Z,57.50
2019-05-10T17:30:27.861Z,57.10
2019-05-10T17:32:57.821Z,57.00
2019-05-10T17:35:27.397Z,56.60
2019-05-10T17:37:56.031Z,57.90
2019-05-10T17:40:24.569Z,57.80
2019-05-10T17:43:14.448Z,58.50
2019-05-10T17:45:42.799Z,59.10
2019-05-10T17:48:11.358Z,58.90
2019-05-10T17:50:39.955Z,58.90
2019-05-10T17:53:08.755Z,59.50
2019-05-10T17:55:37.328Z,59.70
2019-05-10T17:58:06.003Z,59.70
2019-05-10T18:00:34.536Z,60.30
2019-05-10T18:03:03.102Z,61.10
2019-05-10T18:05:31.627Z,60.90
2019-05-10T18:08:00.210Z,61.70
2019-05-10T18:10:28.750Z,61.20
2019-05-10T18:13:02.964Z,61.30
2019-05-10T18:15:32.757Z,62.50
2019-05-10T18:18:02.648Z,63.40
2019-05-10T18:20:28.317Z,62.10
2019-05-10T18:22:57.277Z,62.30
2019-05-10T18:25:26.078Z,63.00
2019-05-10T18:27:54.614Z,63.90
2019-05-10T18:30:23.232Z,64.10
2019-05-10T18:32:51.808Z,64.80
2019-05-10T18:35:20.359Z,64.50
2019-05-10T18:37:53.689Z,64.70
2019-05-10T18:40:19.187Z,65.10
2019-05-10T18:42:47.881Z,67.10
2019-05-10T18:45:16.778Z,68.30
2019-05-10T18:47:45.315Z,69.40
2019-05-10T18:50:18.180Z,70.00
2019-05-10T18:52:47.027Z,70.90
2019-05-10T18:55:16.438Z,71.40
2019-05-10T18:57:50.768Z,71.60
2019-05-10T19:00:23.086Z,72.00
2019-05-10T19:02:55.179Z,72.00
2019-05-10T19:05:25.204Z,72.00
2019-05-10T19:08:03.238Z,72.20
2019-05-10T19:10:21.915Z,72.70
2019-05-10T19:12:59.896Z,73.20
2019-05-10T19:15:21.532Z,73.60
2019-05-10T19:17:50.216Z,74.10
2019-05-10T19:20:18.911Z,74.60
2019-05-10T19:22:47.747Z,75.20
2019-05-10T19:25:18.370Z,75.60
2019-05-10T19:27:50.844Z,75.80
2019-05-10T19:30:20.092Z,75.60
2019-05-10T19:32:50.964Z,76.20
2019-05-10T19:35:18.336Z,77.50
2019-05-10T19:38:20.803Z,78.90
2019-05-10T19:41:10.581Z,79.00
2019-05-10T19:43:39.208Z,79.10
2019-05-10T19:46:08.092Z,79.10
2019-05-10T19:48:57.522Z,79.20
2019-05-10T19:51:27.857Z,79.00
2019-05-10T19:53:56.468Z,79.40
2019-05-10T19:56:44.360Z,79.60
2019-05-10T19:59:13.586Z,79.80
2019-05-10T20:01:45.116Z,80.20
2019-05-10T20:04:13.119Z,80.50
2019-05-10T20:06:41.963Z,80.90
2019-05-10T20:09:10.657Z,82.40
2019-05-10T20:11:39.273Z,84.00
2019-05-10T20:14:08.578Z,83.80
2019-05-10T20:16:51.347Z,83.60
2019-05-10T20:19:09.327Z,83.40
2019-05-10T20:21:38.222Z,83.50
2019-05-10T20:24:06.863Z,84.40
2019-05-10T20:26:57.008Z,84.70
2019-05-10T20:29:25.605Z,84.10
2019-05-10T20:31:55.932Z,83.90
2019-05-10T20:34:27.449Z,84.00
2019-05-10T20:37:16.324Z,84.20
2019-05-10T20:39:45.967Z,84.50
2019-05-10T20:42:14.766Z,86.90
2019-05-10T20:44:46.106Z,86.80
2019-05-10T20:47:16.373Z,86.90
2019-05-10T20:49:47.221Z,86.50
2019-05-10T20:52:16.794Z,86.10
2019-05-10T20:54:47.833Z,85.20
2019-05-10T20:57:16.902Z,85.10
2019-05-10T20:59:46.282Z,84.60
2019-05-10T21:02:38.178Z,84.10
2019-05-10T21:05:08.592Z,83.50
2019-05-10T21:07:38.437Z,84.10
2019-05-10T21:10:09.618Z,84.20
2019-05-10T21:12:39.617Z,84.40
2019-05-10T21:15:09.767Z,84.60
2019-05-10T21:17:40.815Z,84.30
2019-05-10T21:20:11.334Z,84.10
2019-05-10T21:22:43.397Z,84.30
2019-05-10T21:25:14.477Z,84.10
2019-05-10T21:27:53.641Z,84.10
2019-05-10T21:30:22.940Z,83.80
2019-05-10T21:33:14.160Z,83.60
2019-05-10T21:35:43.909Z,83.40
2019-05-10T21:38:12.863Z,83.70
2019-05-10T21:40:42.286Z,84.10
2019-05-10T21:43:19.164Z,84.30
2019-05-10T21:45:49.166Z,84.30
2019-05-10T21:48:18.082Z,85.90
2019-05-10T21:50:47.290Z,87.40
2019-05-10T21:53:17.427Z,88.60
2019-05-10T21:55:47.384Z,89.00
2019-05-10T21:58:27.421Z,89.40
2019-05-10T22:00:57.874Z,85.10
2019-05-10T22:03:29.028Z,82.50
2019-05-10T22:06:10.121Z,82.10
2019-05-10T22:08:49.552Z,81.10
2019-05-10T22:11:12.530Z,81.10
2019-05-10T22:13:42.474Z,80.90
2019-05-10T22:16:12.710Z,81.50
2019-05-10T22:18:43.426Z,83.90
2019-05-10T22:21:13.537Z,85.10
2019-05-10T22:23:42.904Z,86.20
2019-05-10T22:26:12.487Z,86.80
2019-05-10T22:28:50.015Z,87.80
2019-05-10T22:31:20.963Z,88.20
2019-05-10T22:33:50.440Z,91.00
2019-05-10T22:36:25.457Z,91.60
2019-05-10T22:39:06.706Z,88.60
2019-05-10T22:41:25.668Z,89.20
2019-05-10T22:44:01.799Z,90.40
2019-05-10T22:46:31.850Z,90.70
2019-05-10T22:49:01.224Z,91.70
2019-05-10T22:51:30.717Z,92.30
2019-05-10T22:54:00.448Z,92.00
2019-05-10T22:56:30.244Z,91.90
2019-05-10T22:58:59.399Z,93.30
2019-05-10T23:01:28.522Z,93.80
2019-05-10T23:03:58.939Z,94.10
2019-05-10T23:06:28.678Z,94.10
2019-05-10T23:08:58.235Z,94.40
2019-05-10T23:11:28.312Z,94.40
2019-05-10T23:13:58.236Z,94.10
2019-05-10T23:16:29.175Z,93.90
2019-05-10T23:19:03.863Z,94.10
2019-05-10T23:21:33.646Z,93.70
2019-05-10T23:24:05.146Z,93.20
2019-05-10T23:26:34.143Z,93.00
2019-05-10T23:29:05.340Z,94.10
2019-05-10T23:31:54.319Z,93.90
2019-05-10T23:34:26.158Z,93.60
2019-05-10T23:36:56.877Z,94.10
2019-05-10T23:39:39.621Z,94.90
2019-05-10T23:41:57.894Z,95.20
2019-05-10T23:44:27.201Z,94.90
2019-05-10T23:47:01.041Z,95.00
2019-05-10T23:49:30.218Z,95.00
2019-05-10T23:51:59.326Z,94.90
2019-05-10T23:54:36.443Z,94.80
2019-05-10T23:57:06.441Z,94.80
2019-05-10T23:59:35.692Z,94.60
